WBSB/BWN METAR and TAF weather

Enter ICAO airport designator
Station Type Date Time Source
WBSB METAR 2020/04/09 10:30 UTC NOAA

WBSB 091030Z 33001KT 9999 FEW015 SCT140 BKN300 29/25 Q1010 NOSIG


Station Type Date Time Source
WBSB Decoded METAR 2020/04/09 10:30 UTC NOAA

Brunei Airport, Brunei (WBSB) 04-56N 114-56E 15M
Apr 09, 2020 - 06:30 AM EDT / 2020.04.09 1030 UTC
Wind: from the NNW (330 degrees) at 1 MPH (1 KT):0
Visibility: greater than 7 mile(s):0
Sky conditions: mostly cloudy
Temperature: 84 F (29 C)
Dew Point: 77 F (25 C)
Relative Humidity: 79%
Pressure (altimeter): 29.83 in. Hg (1010 hPa)
ob: WBSB 091030Z 33001KT 9999 FEW015 SCT140 BKN300 29/25 Q1010 NOSIG
cycle: 10

Station Type Date Time Source
WBSB TAF 2020/04/09 06:12 UTC NOAA

TAF WBSB 090450Z 0906/1012 03007KT 9999 FEW016
BECMG 0914/0916 16003KT FEW014

Example: see airport list